Flight Information

DEPARTURE
EL PASO, TX
Elevation:
3961
Runways:
8R/26L - 9025x150 - ASPH-CONC-F
8L/26R - 5499x75 - CONC-G
4/22 - 12020x150 - ASPH-CONC-F
ATIS:
120.0 915-772-9412
Clearance Delivery:
125
Ground:
121.9
Tower:
EL PASO TOWER 118.3
DESTINATION
,
Elevation:
TPA:
1000 (est.)


6231.6 NM81° True-11° Var70° HDG

Flight Plan:
(click to file on line)

1. Type
2. Aircraft Identification
3. Aircraft Type / Special Equipment
4. True Airspeed
kts
5. Departure Airport
(ICAO code)
6. Arriving Airport
(ICAO code)
7. Cruising Altitude
ft
8. Alternate Airport
(ICAO code)
9. Route of Flight
10. Remarks


00:00:00 Departure ATIS: Destination ATIS:

Clearance Limit:
Route:
Altitude: Expect in minutes
Frequency:
Transponder: (7500 Hijack / 7600 Lost Comms / 7700 Emergency)


KELP 261251Z 35009KT 10SM FEW070 SCT170 BKN220 23/13 A3021 RMK AO2 SLP154 T02280128
Time: 2022-06-26T12:51:00Z
1656251158
Winds: 350 @ 9 kts
Visibility: 10.0 sm
Clouds (AGL): FEW 7000
SCT 17000
BKN 22000
Temperature: 22.8 C
Dew Point: 12.8 C
Pressure: 30.209646 in Hgbr


Notes:

Data extracted from FAA Digital Chart Supplement. Effective: 0901Z Thursday, 27 JAN 2022 to 0900z Thursday, 24 MAR 2022
Current ATIS data is provided courtisy of PilotEdge.